| time (UTC) | temp C | wind direction | speed KPH | gust KPH | rain 1hr cm | rain 24hr cm | rain mn cm | humidity % | barometer mb |
| 20260506135001 | 7 | 22 | 14.5 | 14.5 | 0.00 | 0.03 | 0.00 | 61 | |
| 20260506134002 | 7 | 0 | 19.3 | 19.3 | 0.00 | 0.03 | 0.00 | 62 | |
| 20260506133425 | 7 | 338 | 16.1 | 16.1 | 0.00 | 0.03 | 0.00 | 62 | |
| 20260506132002 | 6 | 338 | 12.9 | 16.1 | 0.00 | 0.03 | 0.00 | 64 | |
| 20260506131001 | 6 | 338 | 12.9 | 17.7 | 0.00 | 0.03 | 0.00 | 65 | |
| 20260506130002 | 6 | 0 | 11.3 | 12.9 | 0.00 | 0.03 | 0.00 | 65 | |
| 20260506125002 | 5 | 338 | 11.3 | 11.3 | 0.00 | 0.03 | 0.00 | 68 | |
| 20260506124002 | 5 | 338 | 9.7 | 9.7 | 0.00 | 0.03 | 0.00 | 70 | |
| 20260506123002 | 5 | 22 | 6.4 | 11.3 | 0.00 | 0.03 | 0.00 | 69 | |
| 20260506122001 | 5 | 315 | 11.3 | 19.3 | 0.00 | 0.03 | 0.00 | 64 | |
| 20260506121001 | 6 | 292 | 6.4 | 22.5 | 0.00 | 0.03 | 0.00 | 64 | |
| 20260506120002 | 6 | 315 | 19.3 | 24.1 | 0.00 | 0.03 | 0.00 | 64 | |
| 20260506115424 | 6 | 270 | 19.3 | 25.7 | 0.00 | 0.03 | 0.00 | 64 | |
| 20260506114001 | 6 | 270 | 12.9 | 22.5 | 0.00 | 0.03 | 0.00 | 65 | |
| 20260506113002 | 6 | 292 | 16.1 | 25.7 | 0.00 | 0.03 | 0.00 | 65 | |
| 20260506112427 | 6 | 270 | 8.0 | 25.7 | 0.00 | 0.03 | 0.00 | 65 | |
| 20260506111002 | 6 | 292 | 8.0 | 16.1 | 0.00 | 0.03 | 0.00 | 65 | |
| 20260506035002 | 11 | 270 | 12.9 | 22.5 | 0.00 | 0.03 | 0.00 | 53 | |
| 20260506034002 | 11 | 270 | 16.1 | 22.5 | 0.00 | 0.03 | 0.00 | 52 | |
| 20260506033426 | 11 | 248 | 16.1 | 29.0 | 0.00 | 0.03 | 0.00 | 51 | |
| 20260506032001 | 11 | 270 | 17.7 | 27.4 | 0.00 | 0.03 | 0.00 | 51 | |
| 20260506031002 | 11 | 270 | 32.2 | 32.2 | 0.00 | 0.03 | 0.00 | 50 | |
| 20260506030002 | 11 | 270 | 19.3 | 25.7 | 0.00 | 0.03 | 0.00 | 50 | |
| 20260506025001 | 11 | 270 | 22.5 | 25.7 | 0.00 | 0.03 | 0.00 | 49 | |
| 20260506024426 | 12 | 225 | 22.5 | 25.7 | 0.00 | 0.03 | 0.00 | 48 | |
| 20260506023002 | 12 | 248 | 22.5 | 22.5 | 0.00 | 0.03 | 0.00 | 47 | |
| 20260506022002 | 12 | 270 | 17.7 | 24.1 | 0.00 | 0.03 | 0.00 | 46 | |
| 20260506021001 | 12 | 248 | 22.5 | 32.2 | 0.00 | 0.03 | 0.00 | 44 | |
| 20260506020425 | 13 | 248 | 35.4 | 35.4 | 0.00 | 0.03 | 0.00 | 41 | |
| 20260506015002 | 13 | 225 | 25.7 | 41.8 | 0.00 | 0.03 | 0.00 | 39 | |
| 20260506014002 | 13 | 202 | 22.5 | 45.1 | 0.00 | 0.03 | 0.00 | 37 | |
| 20260506013001 | 13 | 248 | 29.0 | 43.5 | 0.00 | 0.03 | 0.00 | 37 | |
| 20260506012002 | 13 | 248 | 29.0 | 38.6 | 0.00 | 0.03 | 0.00 | 37 | |
| 20260506011002 | 13 | 225 | 35.4 | 41.8 | 0.00 | 0.03 | 0.00 | 36 | |
| 20260506010002 | 14 | 270 | 29.0 | 38.6 | 0.00 | 0.03 | 0.00 | 35 | |
| 20260506005001 | 14 | 248 | 25.7 | 41.8 | 0.00 | 0.03 | 0.00 | 38 | |
| 20260506004002 | 14 | 248 | 51.5 | 51.5 | 0.00 | 0.03 | 0.00 | 38 | |
| 20260506003002 | 15 | 248 | 41.8 | 54.7 | 0.00 | 0.03 | 0.00 | 37 | |
| 20260506002002 | 15 | 248 | 35.4 | 45.1 | 0.00 | 0.03 | 0.00 | 37 | |
| 20260506001001 | 16 | 202 | 25.7 | 54.7 | 0.00 | 0.03 | 0.00 | 37 | |
| 20260506000002 | 16 | 202 | 32.2 | 53.1 | 0.00 | 0.03 | 0.00 | 38 | |
| 20260505235427 | 16 | 225 | 33.8 | 43.5 | 0.00 | 0.03 | 0.00 | 39 | |
| 20260505234001 | 15 | 202 | 24.1 | 32.2 | 0.00 | 0.03 | 0.00 | 42 | |
| 20260505233002 | 15 | 248 | 29.0 | 37.0 | 0.00 | 0.03 | 0.00 | 43 | |
| 20260505232002 | 16 | 225 | 40.2 | 40.2 | 0.00 | 0.03 | 0.00 | 42 | |
| 20260505231001 | 15 | 248 | 43.5 | 43.5 | 0.00 | 0.03 | 0.00 | 45 | |
| 20260505230427 | 14 | 248 | 32.2 | 40.2 | 0.00 | 0.03 | 0.00 | 48 | |
| 20260505225002 | 14 | 248 | 35.4 | 43.5 | 0.00 | 0.03 | 0.00 | 49 | |
| 20260505224002 | 15 | 202 | 19.3 | 37.0 | 0.00 | 0.03 | 0.00 | 50 | |
| 20260505223001 | 15 | 202 | 24.1 | 32.2 | 0.00 | 0.03 | 0.00 | 52 | |
| 20260505222001 | 15 | 225 | 22.5 | 38.6 | 0.00 | 0.03 | 0.00 | 55 | |
| 20260505221002 | 15 | 225 | 30.6 | 32.2 | 0.00 | 0.03 | 0.00 | 53 | |
| 20260505220002 | 15 | 202 | 27.4 | 38.6 | 0.00 | 0.03 | 0.00 | 56 | |
| 20260505215001 | 14 | 225 | 17.7 | 25.7 | 0.00 | 0.03 | 0.00 | 60 | |
| 20260505214002 | 12 | 270 | 16.1 | 25.7 | 0.00 | 0.03 | 0.00 | 69 | |
| 20260505213001 | 11 | 270 | 14.5 | 35.4 | 0.00 | 0.03 | 0.00 | 72 | |
| 20260505212002 | 11 | 270 | 30.6 | 33.8 | 0.00 | 0.03 | 0.00 | 64 | |
| 20260505211002 | 12 | 202 | 32.2 | 37.0 | 0.00 | 0.03 | 0.00 | 55 | |
| 20260505210002 | 13 | 248 | 9.7 | 22.5 | 0.00 | 0.03 | 0.00 | 56 | |
| 20260505205002 | 13 | 248 | 17.7 | 25.7 | 0.00 | 0.03 | 0.00 | 55 | |
| 20260505204001 | 13 | 202 | 16.1 | 22.5 | 0.00 | 0.03 | 0.00 | 56 | |
| 20260505203426 | 15 | 270 | 14.5 | 27.4 | 0.00 | 0.03 | 0.00 | 52 | |
| 20260505202002 | 13 | 248 | 29.0 | 35.4 | 0.00 | 0.03 | 0.00 | 56 | |
| 20260505201001 | 13 | 248 | 22.5 | 37.0 | 0.00 | 0.03 | 0.00 | 57 | |
| 20260505200002 | 13 | 225 | 30.6 | 32.2 | 0.00 | 0.03 | 0.00 | 57 | |
| 20260505195001 | 14 | 225 | 27.4 | 38.6 | 0.00 | 0.03 | 0.00 | 54 | |
| 20260505194002 | 13 | 225 | 22.5 | 29.0 | 0.00 | 0.03 | 0.00 | 63 | |
| 20260505193001 | 12 | 248 | 27.4 | 33.8 | 0.00 | 0.03 | 0.00 | 65 | |
| 20260505192002 | 12 | 225 | 22.5 | 29.0 | 0.00 | 0.03 | 0.00 | 67 | |
| 20260505191002 | 12 | 248 | 20.9 | 30.6 | 0.00 | 0.03 | 0.00 | 72 | |
| 20260505190002 | 11 | 248 | 17.7 | 29.0 | 0.00 | 0.03 | 0.00 | 73 | |
| 20260505185002 | 11 | 248 | 27.4 | 27.4 | 0.00 | 0.03 | 0.00 | 74 | |
| 20260505184001 | 11 | 248 | 17.7 | 37.0 | 0.00 | 0.03 | 0.00 | 74 | |
| 20260505183002 | 11 | 270 | 32.2 | 37.0 | 0.00 | 0.03 | 0.00 | 72 | |
| 20260505182002 | 11 | 270 | 22.5 | 32.2 | 0.00 | 0.03 | 0.00 | 75 | |
| 20260505181001 | 11 | 270 | 16.1 | 27.4 | 0.00 | 0.03 | 0.00 | 79 | |
| 20260505180001 | 11 | 248 | 27.4 | 29.0 | 0.00 | 0.03 | 0.00 | 77 | |
| 20260505175002 | 10 | 248 | 25.7 | 25.7 | 0.00 | 0.03 | 0.00 | 80 | |
| 20260505174001 | 11 | 202 | 24.1 | 33.8 | 0.00 | 0.03 | 0.00 | 80 | |
| 20260505173002 | 10 | 270 | 35.4 | 38.6 | 0.00 | 0.03 | 0.00 | 81 | |
| 20260505172001 | 10 | 225 | 25.7 | 29.0 | 0.00 | 0.03 | 0.00 | 84 | |
| 20260505171430 | 10 | 270 | 27.4 | 29.0 | 0.00 | 0.03 | 0.00 | 85 | |
| 20260505170001 | 9 | 248 | 22.5 | 35.4 | 0.00 | 0.03 | 0.00 | 88 | |
| 20260505165002 | 9 | 270 | 22.5 | 29.0 | 0.00 | 0.03 | 0.00 | 91 | |
| 20260505164001 | 8 | 248 | 19.3 | 32.2 | 0.00 | 0.03 | 0.00 | 93 | |
| 20260505163002 | 8 | 248 | 16.1 | 32.2 | 0.00 | 0.03 | 0.00 | 93 | |
| 20260505162001 | 8 | 270 | 16.1 | 20.9 | 0.00 | 0.03 | 0.00 | 90 | |
| 20260505161002 | 8 | 248 | 16.1 | 24.1 | 0.00 | 0.03 | 0.00 | 90 | |
| 20260505152002 | 8 | 180 | 4.8 | 17.7 | 0.00 | 0.00 | 0.00 | 87 | |
| 20260505151001 | 7 | 225 | 11.3 | 19.3 | 0.00 | 0.00 | 0.00 | 87 |